Etusivu
METAR-TAF:

METAR-TAF

Lentoasemat :

Djanet, Algeria

Leveyspiiri: 24-33N, Pituuspiiri: 009-28E, korkeus merenpinnasta: 1054 m

Tämänhetkinen sää

Tämä raportti tehtiin 26 minuuttia sitten, kello 11.00 UTC
Tuuli 3 kn pohjoisesta
Lämpötila 30°C
Kosteus 9%
Ilmanpaine 1016 hPa
Näkyvyys 10 km tai enemmän
ei pilviä alle 1500 m:ssä eikä cumulonimbus-pilviä

METAR: DAAJ 011100Z 35003KT CAVOK 30/M06 Q1016

Aika: 12:26 (11:26 UTC)

Sääennuste

Tämä raportti tehtiin 6 tuntia ja 26 minuuttia sitten, kello 05.00 UTC
Ennuste voimassa 01. päivästä klo 06 UTC - 02. päivään klo 06 UTC
Tuuli 2 kn eri suunnista
Näkyvyys 10 km tai enemmän
ei pilviä alle 1500 m:ssä eikä cumulonimbus-pilviä
Tulossa
01. päivästä klo 08 UTC - 01. päivään klo 11 UTC
Tuuli 12 kn pohjoisen/luoteesta

TAF: DAAJ 010500Z 0106/0206 VRB02KT CAVOK BECMG 0108/0111 34012KT

Säähavainnot ja -ennusteet yli 4000 lentoasemalta (METAR- ja TAF-raportit).

Käytössä olevat sääasemat on merkitty karttaan keltaisilla ja punaisilla pisteillä.

Aseta hiiri pisteen päälle nähdäksesi sääaseman nimen.

Klikkaa sitten nähdäksesi säähavainnot ja -ennusteet.

Kartan vaihtaminen: klikkaa mustalla rastilla varustettuja vihreitä pisteitä, niin voit zoomata sisään; viivalla varustettua vihreää pistettä, niin voit zoomata ulos tai vihreitä nuolia, niin pääset viereisille kartoille.


METAR-TAF: